createdAt,value
2023-05-02T00:02:02.695Z,47.64
2023-05-02T00:04:35.669Z,47.58
2023-05-02T00:07:09.424Z,47.95
2023-05-02T00:09:42.403Z,47.96
2023-05-02T00:12:14.773Z,47.90
2023-05-02T00:14:47.546Z,47.90
2023-05-02T00:17:21.924Z,48.13
2023-05-02T00:19:55.544Z,48.40
2023-05-02T00:22:29.118Z,48.23
2023-05-02T00:25:02.012Z,48.15
2023-05-02T00:27:38.420Z,48.57
2023-05-02T00:30:13.223Z,48.56
2023-05-02T00:32:45.717Z,48.52
2023-05-02T00:35:18.554Z,48.86
2023-05-02T00:37:50.947Z,48.73
2023-05-02T00:40:25.780Z,49.01
2023-05-02T00:42:58.610Z,48.58
2023-05-02T00:45:34.948Z,48.69
2023-05-02T00:48:08.135Z,49.17
2023-05-02T00:50:43.190Z,49.03
2023-05-02T00:53:16.417Z,49.12
2023-05-02T00:55:49.969Z,49.15
2023-05-02T00:58:23.747Z,49.01
2023-05-02T01:01:06.507Z,49.06
2023-05-02T01:03:48.713Z,49.34
2023-05-02T01:06:35.679Z,49.58
2023-05-02T01:09:24.583Z,49.33
2023-05-02T01:12:04.785Z,49.56
2023-05-02T01:14:42.681Z,49.83
2023-05-02T01:17:16.891Z,49.64
2023-05-02T01:19:55.369Z,49.57
2023-05-02T01:22:30.323Z,49.95
2023-05-02T01:25:14.703Z,49.77
2023-05-02T01:27:59.252Z,50.24
2023-05-02T01:30:34.125Z,50.17
2023-05-02T01:33:10.197Z,49.67
2023-05-02T01:35:44.176Z,50.30
2023-05-02T01:38:19.801Z,50.37
2023-05-02T01:40:54.783Z,50.54
2023-05-02T01:43:28.524Z,50.18
2023-05-02T01:46:04.430Z,50.58
2023-05-02T01:48:38.075Z,50.58
2023-05-02T01:51:13.254Z,50.47
2023-05-02T01:53:47.846Z,50.31
2023-05-02T01:56:22.667Z,50.40
2023-05-02T01:58:57.016Z,50.60
2023-05-02T02:01:31.379Z,50.64
2023-05-02T02:04:06.130Z,50.97
2023-05-02T02:06:38.736Z,50.47
2023-05-02T02:09:12.561Z,50.58
2023-05-02T02:11:49.381Z,51.01
2023-05-02T02:14:29.147Z,50.88
2023-05-02T02:17:08.117Z,51.12
2023-05-02T02:19:45.282Z,50.96
2023-05-02T02:22:20.347Z,51.24
2023-05-02T02:24:56.430Z,51.12
2023-05-02T02:27:30.636Z,51.10
2023-05-02T02:30:04.437Z,50.89
2023-05-02T02:32:36.942Z,50.91
2023-05-02T02:35:11.425Z,50.96
2023-05-02T02:37:49.089Z,51.03
2023-05-02T02:40:27.390Z,51.30
2023-05-02T02:43:09.540Z,51.50
2023-05-02T02:45:50.428Z,51.74
2023-05-02T02:48:35.901Z,51.75
2023-05-02T02:51:16.321Z,51.41
2023-05-02T02:53:59.567Z,51.73
2023-05-02T02:56:40.318Z,51.64
2023-05-02T02:59:20.613Z,51.84
2023-05-02T03:02:03.016Z,51.46
2023-05-02T03:04:39.669Z,51.81
2023-05-02T03:07:12.471Z,52.01
2023-05-02T03:09:46.896Z,52.04
2023-05-02T03:12:23.121Z,51.70
2023-05-02T03:14:59.002Z,51.73
2023-05-02T03:17:34.316Z,51.71
2023-05-02T03:20:07.936Z,52.26
2023-05-02T03:22:40.484Z,51.81
2023-05-02T03:25:13.446Z,52.15
2023-05-02T03:27:47.028Z,52.42
2023-05-02T03:30:21.695Z,52.35
2023-05-02T03:32:54.444Z,51.92
2023-05-02T03:35:30.493Z,51.97
2023-05-02T03:38:03.627Z,52.38
2023-05-02T03:40:39.143Z,52.06
2023-05-02T03:43:14.485Z,52.65
2023-05-02T03:45:48.679Z,52.25
2023-05-02T03:48:21.683Z,52.65
2023-05-02T03:50:55.813Z,52.78
2023-05-02T03:53:28.683Z,52.56
2023-05-02T03:56:02.630Z,52.43
2023-05-02T03:58:39.012Z,52.51
2023-05-02T04:01:18.350Z,52.72
2023-05-02T04:03:57.477Z,52.75
2023-05-02T04:06:33.379Z,52.81
2023-05-02T04:09:09.798Z,52.86
2023-05-02T04:11:48.351Z,52.63
2023-05-02T04:14:21.132Z,52.59
2023-05-02T04:16:57.315Z,52.61
2023-05-02T04:19:49.502Z,52.65
2023-05-02T04:22:24.941Z,52.57
2023-05-02T04:25:01.731Z,52.65
2023-05-02T04:27:35.653Z,52.33
2023-05-02T04:30:11.512Z,52.27
2023-05-02T04:32:44.767Z,52.28
2023-05-02T04:35:18.272Z,52.17
2023-05-02T04:37:52.025Z,51.78
2023-05-02T04:40:28.103Z,51.99
2023-05-02T04:43:06.427Z,51.59
2023-05-02T04:45:49.238Z,51.84
2023-05-02T04:48:30.179Z,51.86
2023-05-02T04:51:05.392Z,51.73
2023-05-02T04:53:38.481Z,51.74
2023-05-02T04:56:11.876Z,51.23
2023-05-02T04:58:45.571Z,51.01
2023-05-02T05:01:19.825Z,50.76
2023-05-02T05:03:53.079Z,50.03
2023-05-02T05:06:25.872Z,50.32
2023-05-02T05:09:02.763Z,49.40
2023-05-02T05:11:39.755Z,48.08
2023-05-02T05:14:13.458Z,47.33
2023-05-02T05:16:50.185Z,45.91
2023-05-02T05:19:21.467Z,45.18
2023-05-02T05:21:53.940Z,44.15
2023-05-02T05:24:28.733Z,43.46
2023-05-02T05:27:03.081Z,42.29
2023-05-02T05:29:36.129Z,41.15
2023-05-02T05:32:09.457Z,40.52
2023-05-02T05:34:44.018Z,40.10
2023-05-02T05:37:17.408Z,40.34
2023-05-02T05:39:50.342Z,39.96
2023-05-02T05:42:23.278Z,39.63
2023-05-02T05:45:00.367Z,39.70
2023-05-02T05:47:33.735Z,39.50
2023-05-02T05:50:08.299Z,39.43
2023-05-02T05:52:41.290Z,39.09
2023-05-02T05:55:14.469Z,38.90
2023-05-02T05:57:47.310Z,39.09
2023-05-02T06:00:23.694Z,39.51
2023-05-02T06:02:56.766Z,39.96
2023-05-02T06:05:33.704Z,40.57
2023-05-02T06:08:06.598Z,40.19
2023-05-02T06:10:39.175Z,40.24
2023-05-02T06:13:12.063Z,40.68
2023-05-02T06:15:47.246Z,40.55
2023-05-02T06:18:19.844Z,40.81
2023-05-02T06:20:52.828Z,40.86
2023-05-02T06:23:26.424Z,41.22
2023-05-02T06:26:02.343Z,41.30
2023-05-02T06:28:34.712Z,41.67
2023-05-02T06:31:08.017Z,41.46
2023-05-02T06:33:40.873Z,41.76
2023-05-02T06:36:15.633Z,41.87
2023-05-02T06:38:49.918Z,41.92
2023-05-02T06:41:21.134Z,42.06
2023-05-02T06:43:53.605Z,41.76
2023-05-02T06:46:30.082Z,41.74
2023-05-02T06:49:03.194Z,41.68
2023-05-02T06:51:35.578Z,41.35
2023-05-02T06:54:09.686Z,41.70
2023-05-02T06:56:41.964Z,41.50
2023-05-02T06:59:14.351Z,41.51
2023-05-02T07:01:46.905Z,41.89
2023-05-02T07:04:19.519Z,41.72
2023-05-02T07:06:52.251Z,41.37
2023-05-02T07:09:24.774Z,41.32
2023-05-02T07:11:57.087Z,41.19
2023-05-02T07:14:29.831Z,40.73
2023-05-02T07:17:02.523Z,40.37
2023-05-02T07:19:35.499Z,39.97
2023-05-02T07:22:08.220Z,39.84
2023-05-02T07:24:43.892Z,39.67
2023-05-02T07:27:16.484Z,39.84
2023-05-02T07:29:48.990Z,39.92
2023-05-02T07:32:22.031Z,39.92
2023-05-02T07:34:56.477Z,39.69
2023-05-02T07:37:34.400Z,39.91
2023-05-02T07:40:09.587Z,39.25
2023-05-02T07:42:42.299Z,39.56
2023-05-02T07:45:14.640Z,39.32
2023-05-02T07:47:47.835Z,39.77
2023-05-02T07:50:20.546Z,39.35
2023-05-02T07:52:52.912Z,39.19
2023-05-02T07:55:28.234Z,39.49
2023-05-02T07:58:00.654Z,39.18
2023-05-02T08:00:33.385Z,39.47
2023-05-02T08:03:08.261Z,39.26
2023-05-02T08:05:41.313Z,39.01
2023-05-02T08:08:13.620Z,39.16
2023-05-02T08:10:46.935Z,39.30
2023-05-02T08:13:19.647Z,39.56
2023-05-02T08:15:52.751Z,39.25
2023-05-02T08:18:25.603Z,39.62
2023-05-02T08:21:00.603Z,39.54
2023-05-02T08:23:33.027Z,39.23
2023-05-02T08:26:05.603Z,39.32
2023-05-02T08:28:39.223Z,39.71
2023-05-02T08:31:12.271Z,39.70
2023-05-02T08:33:44.918Z,39.71
2023-05-02T08:36:19.387Z,39.75
2023-05-02T08:39:01.190Z,39.78
2023-05-02T08:41:34.622Z,39.16
2023-05-02T08:44:09.627Z,39.13
2023-05-02T08:46:45.564Z,39.45
2023-05-02T08:49:19.781Z,39.10
2023-05-02T08:51:52.903Z,38.96
2023-05-02T08:54:27.461Z,38.48
2023-05-02T08:57:03.753Z,38.69
2023-05-02T08:59:36.116Z,38.73
2023-05-02T09:02:19.852Z,38.47
2023-05-02T09:04:57.194Z,38.32
2023-05-02T09:07:30.397Z,38.10
2023-05-02T09:10:02.727Z,37.96
2023-05-02T09:12:35.688Z,37.58
2023-05-02T09:15:20.001Z,37.71
2023-05-02T09:17:53.799Z,37.13
2023-05-02T09:20:26.324Z,37.18
2023-05-02T09:22:59.278Z,37.28
2023-05-02T09:25:39.733Z,37.36
2023-05-02T09:28:12.152Z,37.51
2023-05-02T09:30:44.714Z,37.41
2023-05-02T09:33:29.975Z,37.70
2023-05-02T09:36:02.558Z,37.29
2023-05-02T09:38:35.317Z,37.77
2023-05-02T09:41:07.872Z,37.65
2023-05-02T09:43:41.282Z,37.79
2023-05-02T09:46:14.596Z,38.06
2023-05-02T09:49:04.076Z,37.84
2023-05-02T09:51:37.309Z,37.81
2023-05-02T09:54:10.246Z,38.08
2023-05-02T09:56:58.823Z,37.89
2023-05-02T09:59:31.984Z,37.88
2023-05-02T10:02:07.380Z,38.05
2023-05-02T10:04:42.630Z,38.05
2023-05-02T10:07:17.849Z,38.37
2023-05-02T10:09:54.936Z,38.05
2023-05-02T10:12:31.013Z,37.94
2023-05-02T10:15:11.330Z,38.57
2023-05-02T10:17:49.416Z,38.49
2023-05-02T10:20:31.613Z,38.62
2023-05-02T10:23:04.660Z,38.84
2023-05-02T10:25:38.274Z,38.81
2023-05-02T10:28:11.267Z,39.42
2023-05-02T10:30:45.223Z,39.10
2023-05-02T10:33:20.238Z,39.60
2023-05-02T10:35:54.958Z,40.21
2023-05-02T10:38:28.328Z,39.86
2023-05-02T10:41:07.615Z,40.33
2023-05-02T10:43:41.360Z,40.56
2023-05-02T10:46:38.248Z,40.75
2023-05-02T10:49:11.723Z,41.12
2023-05-02T10:51:44.892Z,41.08
2023-05-02T10:54:25.933Z,41.58
2023-05-02T10:57:09.812Z,42.14
2023-05-02T10:59:43.521Z,42.10
2023-05-02T11:02:52.740Z,42.30
2023-05-02T11:05:27.390Z,42.47
2023-05-02T11:08:30.428Z,43.06
2023-05-02T11:11:43.136Z,43.22
2023-05-02T11:14:48.902Z,43.65
2023-05-02T11:17:21.767Z,44.68
2023-05-02T11:20:27.326Z,44.79
2023-05-02T11:23:17.475Z,45.19
2023-05-02T11:25:51.357Z,45.70
2023-05-02T11:28:46.083Z,46.23
2023-05-02T11:32:05.264Z,46.18
2023-05-02T11:34:45.836Z,46.61
2023-05-02T11:37:18.217Z,46.85
2023-05-02T11:39:51.788Z,47.50
2023-05-02T11:42:35.219Z,47.17
2023-05-02T11:45:09.126Z,47.29
2023-05-02T11:47:40.249Z,47.50
2023-05-02T11:50:15.619Z,47.10
2023-05-02T11:52:48.972Z,46.98
2023-05-02T11:55:21.488Z,47.30
2023-05-02T11:57:54.237Z,47.31
2023-05-02T12:00:31.669Z,47.14
2023-05-02T12:03:04.660Z,47.04
2023-05-02T12:05:37.567Z,47.14
2023-05-02T12:08:19.775Z,47.35
2023-05-02T12:10:54.117Z,46.96
2023-05-02T12:13:28.967Z,47.48
2023-05-02T12:16:03.053Z,47.03
2023-05-02T12:18:36.866Z,46.61
2023-05-02T12:21:07.846Z,46.74
2023-05-02T12:23:42.690Z,46.36
2023-05-02T12:26:26.093Z,46.49
2023-05-02T12:29:01.090Z,45.88
2023-05-02T12:31:33.869Z,45.58
2023-05-02T12:34:07.233Z,45.78
2023-05-02T12:36:47.093Z,45.72
2023-05-02T12:39:20.375Z,45.56
2023-05-02T12:41:52.911Z,45.37
2023-05-02T13:11:06.371Z,44.87
2023-05-02T13:13:35.516Z,44.67
2023-05-02T13:16:04.957Z,45.04
2023-05-02T13:18:34.316Z,44.88
2023-05-02T13:21:04.626Z,44.68
2023-05-02T13:23:33.392Z,44.63
2023-05-02T13:26:02.397Z,44.93
2023-05-02T13:28:32.824Z,44.71
2023-05-02T13:31:02.062Z,45.13
2023-05-02T13:33:31.027Z,44.75
2023-05-02T13:36:03.685Z,44.69
2023-05-02T13:38:33.598Z,44.78
2023-05-02T13:41:02.546Z,44.34
2023-05-02T13:43:31.797Z,44.02
2023-05-02T13:46:00.839Z,44.12
2023-05-02T13:48:31.650Z,44.17
2023-05-02T13:51:00.650Z,43.92
2023-05-02T13:53:30.340Z,44.07
2023-05-02T13:56:01.482Z,43.85
2023-05-02T13:58:30.612Z,43.46
2023-05-02T14:01:01.193Z,43.87
2023-05-02T14:03:30.635Z,43.48
2023-05-02T14:06:02.247Z,43.31
2023-05-02T14:08:34.323Z,43.59
2023-05-02T14:11:05.795Z,43.38
2023-05-02T14:13:36.418Z,43.47
2023-05-02T14:16:07.325Z,43.35
2023-05-02T14:18:36.344Z,42.98
2023-05-02T14:21:06.067Z,42.76
2023-05-02T14:23:35.481Z,42.69
2023-05-02T14:26:04.563Z,42.66
2023-05-02T14:28:33.559Z,42.56
2023-05-02T14:31:07.489Z,42.33
2023-05-02T14:33:36.507Z,42.18
2023-05-02T14:36:05.897Z,42.58
2023-05-02T14:38:34.947Z,42.30
2023-05-02T14:41:03.865Z,42.47
2023-05-02T14:43:32.912Z,42.77
2023-05-02T14:46:04.414Z,42.38
2023-05-02T14:48:33.313Z,42.43
2023-05-02T14:51:05.154Z,42.63
2023-05-02T14:53:34.137Z,42.50
2023-05-02T14:56:03.317Z,42.37
2023-05-02T14:58:32.269Z,42.30
2023-05-02T15:01:02.054Z,42.72
2023-05-02T15:03:31.161Z,42.57
2023-05-02T15:06:01.048Z,42.53
2023-05-02T15:08:31.419Z,42.48
2023-05-02T15:11:00.661Z,42.96
2023-05-02T15:13:30.915Z,42.65
2023-05-02T15:16:00.510Z,42.58
2023-05-02T15:18:30.316Z,42.67
2023-05-02T15:20:59.633Z,42.56
2023-05-02T15:23:30.435Z,42.60
2023-05-02T15:25:59.607Z,42.79
2023-05-02T15:28:28.751Z,42.90
2023-05-02T15:30:58.062Z,42.64
2023-05-02T15:33:32.354Z,42.89
2023-05-02T15:36:02.127Z,43.15
2023-05-02T15:38:33.581Z,43.22
2023-05-02T15:41:02.408Z,43.04
2023-05-02T15:43:31.676Z,43.24
2023-05-02T15:46:01.194Z,43.22
2023-05-02T15:48:33.049Z,43.43
2023-05-02T15:51:02.715Z,43.65
2023-05-02T15:53:32.147Z,43.72
2023-05-02T15:56:02.374Z,43.52
2023-05-02T15:58:31.436Z,43.31
2023-05-02T16:01:00.299Z,43.81
2023-05-02T16:03:31.932Z,43.68
2023-05-02T16:06:05.300Z,43.94
2023-05-02T16:08:34.411Z,43.75
2023-05-02T16:11:03.298Z,43.70
2023-05-02T16:13:32.370Z,44.12
2023-05-02T16:16:01.529Z,44.05
2023-05-02T16:18:30.784Z,44.38
2023-05-02T16:21:00.039Z,44.26
2023-05-02T16:23:31.513Z,44.38
2023-05-02T16:26:01.319Z,44.45
2023-05-02T16:28:30.630Z,44.24
2023-05-02T16:31:05.012Z,44.18
2023-05-02T16:33:34.123Z,44.33
2023-05-02T16:36:03.927Z,44.56
2023-05-02T16:38:35.890Z,44.73
2023-05-02T16:41:06.475Z,44.68
2023-05-02T16:43:37.687Z,44.64
2023-05-02T16:46:07.479Z,44.79
2023-05-02T16:48:36.639Z,44.84
2023-05-02T16:51:06.369Z,44.82
2023-05-02T16:53:35.325Z,44.99
2023-05-02T16:56:05.609Z,45.28
2023-05-02T16:58:34.978Z,45.09
2023-05-02T17:01:04.951Z,45.33
2023-05-02T17:03:33.922Z,45.12
2023-05-02T17:06:04.604Z,45.60
2023-05-02T17:08:33.560Z,45.21
2023-05-02T17:11:02.556Z,45.33
2023-05-02T17:13:32.278Z,45.41
2023-05-02T17:16:02.989Z,45.37
2023-05-02T17:18:33.783Z,45.92
2023-05-02T17:21:03.962Z,45.57
2023-05-02T17:23:34.070Z,45.97
2023-05-02T17:26:13.518Z,46.13
2023-05-02T17:28:43.852Z,46.29
2023-05-02T17:31:13.286Z,46.58
2023-05-02T17:33:42.416Z,46.77
2023-05-02T17:36:11.730Z,47.06
2023-05-02T17:38:41.378Z,47.20
2023-05-02T17:41:10.441Z,47.40
2023-05-02T17:43:41.965Z,47.39
2023-05-02T17:46:11.034Z,47.75
2023-05-02T17:48:43.710Z,47.91
2023-05-02T17:51:12.896Z,47.92
2023-05-02T17:53:42.058Z,47.59
2023-05-02T17:56:12.409Z,47.99
2023-05-02T17:58:41.308Z,48.47
2023-05-02T18:01:11.821Z,48.35
2023-05-02T18:03:41.421Z,48.35
2023-05-02T18:06:16.563Z,48.95
2023-05-02T18:08:45.977Z,48.53
2023-05-02T18:11:16.411Z,48.42
2023-05-02T18:13:46.180Z,49.23
2023-05-02T18:16:16.621Z,48.81
2023-05-02T18:18:45.683Z,49.21
2023-05-02T18:21:22.051Z,49.40
2023-05-02T18:23:51.114Z,49.50
2023-05-02T18:26:20.384Z,49.27
2023-05-02T18:28:52.716Z,50.15
2023-05-02T18:31:21.980Z,49.92
2023-05-02T18:33:53.128Z,50.68
2023-05-02T18:36:26.675Z,50.36
2023-05-02T18:38:57.184Z,50.23
2023-05-02T18:41:26.435Z,50.97
2023-05-02T18:43:58.537Z,50.60
2023-05-02T18:46:31.074Z,50.49
2023-05-02T18:49:02.653Z,50.78
2023-05-02T18:51:31.683Z,51.45
2023-05-02T18:54:00.719Z,51.41
2023-05-02T18:56:30.091Z,51.84
2023-05-02T18:58:59.710Z,51.07
2023-05-02T19:01:28.899Z,51.37
2023-05-02T19:04:00.497Z,50.87
2023-05-02T19:06:30.972Z,51.76
2023-05-02T19:09:00.312Z,51.76
2023-05-02T19:11:30.658Z,51.04
2023-05-02T19:14:02.830Z,51.41
2023-05-02T19:16:33.192Z,51.39
2023-05-02T19:19:03.766Z,52.09
2023-05-02T19:21:33.685Z,51.79
2023-05-02T19:24:03.286Z,51.44
2023-05-02T19:26:32.523Z,52.09
2023-05-02T19:29:01.968Z,51.53
2023-05-02T19:31:31.103Z,52.06
2023-05-02T19:34:00.338Z,52.48
2023-05-02T19:36:32.280Z,52.48
2023-05-02T19:39:01.346Z,52.59
2023-05-02T19:41:30.808Z,52.60
2023-05-02T19:44:00.656Z,52.58
2023-05-02T19:46:30.753Z,52.13
2023-05-02T19:49:00.456Z,52.25
2023-05-02T19:51:34.101Z,53.02
2023-05-02T19:54:03.116Z,52.43
2023-05-02T19:56:32.190Z,52.74
2023-05-02T19:59:01.397Z,52.88
2023-05-02T20:01:32.491Z,53.11
2023-05-02T20:04:02.976Z,52.95
2023-05-02T20:06:32.850Z,54.02
2023-05-02T20:09:02.080Z,53.32
2023-05-02T20:11:32.320Z,53.36
2023-05-02T20:14:02.510Z,53.44
2023-05-02T20:16:32.181Z,53.52
2023-05-02T20:19:01.388Z,53.58
2023-05-02T20:21:30.976Z,53.67
2023-05-02T20:24:00.044Z,54.14
2023-05-02T20:26:30.793Z,54.25
2023-05-02T20:29:00.286Z,53.96
2023-05-02T20:31:30.464Z,53.98
2023-05-02T20:34:00.258Z,54.33
2023-05-02T20:36:30.549Z,53.90
2023-05-02T20:38:59.418Z,54.23
2023-05-02T20:41:31.767Z,54.44
2023-05-02T20:44:02.295Z,55.16
2023-05-02T20:46:31.654Z,54.26
2023-05-02T20:49:01.770Z,54.94
2023-05-02T20:51:31.255Z,55.08
2023-05-02T20:54:00.412Z,55.19
2023-05-02T20:56:30.138Z,55.03
2023-05-02T20:58:59.464Z,55.76
2023-05-02T21:01:29.073Z,55.54
2023-05-02T21:03:58.067Z,56.10
2023-05-02T21:06:30.781Z,56.17
2023-05-02T21:09:01.294Z,55.28
2023-05-02T21:11:31.331Z,56.32
2023-05-02T21:14:00.386Z,56.63
2023-05-02T21:16:30.179Z,56.56
2023-05-02T21:18:59.389Z,56.69
2023-05-02T21:21:28.958Z,56.84
2023-05-02T21:23:58.250Z,55.85
2023-05-02T21:26:27.386Z,56.87
2023-05-02T21:28:56.908Z,56.17
2023-05-02T21:31:26.134Z,56.57
2023-05-02T21:33:55.515Z,57.03
2023-05-02T21:36:24.622Z,56.47
2023-05-02T21:38:53.805Z,57.58
2023-05-02T21:41:22.684Z,57.00
2023-05-02T21:43:52.402Z,57.04
2023-05-02T21:46:21.373Z,57.71
2023-05-02T21:48:53.979Z,58.42
2023-05-02T21:51:23.494Z,58.07
2023-05-02T21:53:53.550Z,58.82
2023-05-02T21:56:22.412Z,58.03
2023-05-02T21:58:52.646Z,59.18
2023-05-02T22:01:21.694Z,58.52
2023-05-02T22:03:54.900Z,59.08
2023-05-02T22:06:24.601Z,58.94
2023-05-02T22:08:54.271Z,59.03
2023-05-02T22:11:23.768Z,59.46
2023-05-02T22:13:52.912Z,59.83
2023-05-02T22:16:21.890Z,59.94
2023-05-02T22:18:57.484Z,59.76
2023-05-02T22:21:26.867Z,59.58
2023-05-02T22:23:56.702Z,60.14
2023-05-02T22:26:29.168Z,60.11
2023-05-02T22:28:57.965Z,59.97
2023-05-02T22:31:28.875Z,60.30
2023-05-02T22:33:57.759Z,60.06
2023-05-02T22:36:28.955Z,60.27
2023-05-02T22:38:57.909Z,60.71
2023-05-02T22:41:26.796Z,60.43
2023-05-02T22:43:56.202Z,60.42
2023-05-02T22:46:25.187Z,60.32
2023-05-02T22:48:57.308Z,60.34
2023-05-02T22:51:26.846Z,60.33
2023-05-02T22:53:56.925Z,60.43
2023-05-02T22:56:26.693Z,60.74
2023-05-02T22:58:57.652Z,60.87
2023-05-02T23:01:28.248Z,60.70
2023-05-02T23:03:57.419Z,60.76
2023-05-02T23:06:28.700Z,60.74
2023-05-02T23:08:57.692Z,60.89
2023-05-02T23:11:26.598Z,60.55
2023-05-02T23:13:58.093Z,60.69
2023-05-02T23:16:26.886Z,60.85
2023-05-02T23:18:57.098Z,61.00
2023-05-02T23:21:26.084Z,60.49
2023-05-02T23:23:55.079Z,61.17
2023-05-02T23:26:23.966Z,60.92
2023-05-02T23:28:52.905Z,60.91
2023-05-02T23:31:21.971Z,61.24
2023-05-02T23:33:57.921Z,60.76
2023-05-02T23:36:27.304Z,61.19
2023-05-02T23:38:57.201Z,60.90
2023-05-02T23:41:26.443Z,60.74
2023-05-02T23:43:57.860Z,60.71
2023-05-02T23:46:27.078Z,60.93
2023-05-02T23:48:56.757Z,61.19
2023-05-02T23:51:29.962Z,61.33
2023-05-02T23:53:59.176Z,61.46
2023-05-02T23:56:28.477Z,60.81
2023-05-02T23:58:57.393Z,61.16
